WZZ1NS EVRA-EDDH
Flight info
| Callsign | WZZ1NS |
|---|---|
| Flight time | 1h 27m |
| Altitude | 38000 |
| Route | VALED DCT ADAXA DCT NINTA DCT BAGOS N850 BOGMU BOGMU3P |
| Aircraft | A320/M-SDE3FGHIRWY/LB1 |
Departure
| Time | 2026-04-24 19:31 |
|---|---|
| Airport | Riga International Airport (EVRA) |
Arrival
| Time | 2026-04-24 20:59 |
|---|---|
| Airport | Hamburg Helmut Schmidt Airport (EDDH) |
| Time | Latitude | Longitude | Altitude | Speed | Heading |
|---|---|---|---|---|---|
| 2026-04-24 18:54 | 56.92292 | 23.97758 | 46 ft | 0 kts | 185° |
| 2026-04-24 19:08 | 56.92298 | 23.97759 | 44 ft | 4 kts | 186° |
| 2026-04-24 19:08 | 56.92324 | 23.97766 | 42 ft | 4 kts | 199° |
| 2026-04-24 19:08 | 56.92344 | 23.97788 | 41 ft | 4 kts | 250° |
| 2026-04-24 19:08 | 56.92346 | 23.97804 | 46 ft | 0 kts | 275° |
| 2026-04-24 19:13 | 56.92348 | 23.97774 | 46 ft | 4 kts | 275° |
| 2026-04-24 19:13 | 56.92352 | 23.97700 | 46 ft | 8 kts | 275° |
| 2026-04-24 19:14 | 56.92357 | 23.97583 | 46 ft | 11 kts | 275° |
| 2026-04-24 19:14 | 56.92308 | 23.97497 | 46 ft | 13 kts | 184° |
| 2026-04-24 19:14 | 56.92208 | 23.97483 | 46 ft | 16 kts | 186° |
| 2026-04-24 19:14 | 56.92092 | 23.97463 | 46 ft | 16 kts | 185° |
| 2026-04-24 19:15 | 56.91979 | 23.97445 | 46 ft | 16 kts | 183° |
| 2026-04-24 19:15 | 56.91855 | 23.97432 | 46 ft | 19 kts | 185° |
| 2026-04-24 19:15 | 56.91731 | 23.97413 | 46 ft | 14 kts | 185° |
| 2026-04-24 19:15 | 56.91624 | 23.97394 | 46 ft | 17 kts | 186° |
| 2026-04-24 19:16 | 56.91404 | 23.97360 | 46 ft | 16 kts | 185° |
| 2026-04-24 19:16 | 56.91283 | 23.97339 | 46 ft | 19 kts | 185° |
| 2026-04-24 19:16 | 56.91150 | 23.97316 | 46 ft | 15 kts | 185° |
| 2026-04-24 19:17 | 56.91047 | 23.97300 | 44 ft | 15 kts | 185° |
| 2026-04-24 19:17 | 56.90946 | 23.97221 | 45 ft | 17 kts | 216° |
| 2026-04-24 19:17 | 56.90820 | 23.97169 | 46 ft | 20 kts | 185° |
| 2026-04-24 19:17 | 56.90724 | 23.97153 | 46 ft | 9 kts | 185° |
| 2026-04-24 19:18 | 56.90676 | 23.97118 | 46 ft | 0 kts | 222° |
| 2026-04-24 19:18 | 56.90666 | 23.97100 | 43 ft | 3 kts | 229° |
| 2026-04-24 19:18 | 56.90650 | 23.97053 | 45 ft | 0 kts | 247° |
| 2026-04-24 19:27 | 56.90650 | 23.97051 | 45 ft | 1 kts | 247° |
| 2026-04-24 19:28 | 56.90647 | 23.97028 | 44 ft | 5 kts | 261° |
| 2026-04-24 19:28 | 56.90650 | 23.96938 | 45 ft | 9 kts | 276° |
| 2026-04-24 19:28 | 56.90686 | 23.96851 | 45 ft | 11 kts | 346° |
| 2026-04-24 19:28 | 56.90733 | 23.96853 | 44 ft | 0 kts | 4° |
| 2026-04-24 19:29 | 56.90742 | 23.96855 | 44 ft | 0 kts | 5° |
| 2026-04-24 19:30 | 56.90848 | 23.96872 | 44 ft | 46 kts | 5° |
| 2026-04-24 19:30 | 56.91398 | 23.96958 | 48 ft | 109 kts | 5° |
| 2026-04-24 19:30 | 56.92323 | 23.97085 | 64 ft | 154 kts | 1° |
| 2026-04-24 19:31 | 56.93415 | 23.97204 | 578 ft | 159 kts | 1° |
| 2026-04-24 19:31 | 56.94514 | 23.97365 | 1320 ft | 158 kts | 2° |
| 2026-04-24 19:31 | 56.95654 | 23.97556 | 1761 ft | 174 kts | 3° |
| 2026-04-24 19:31 | 56.96942 | 23.97774 | 2057 ft | 199 kts | 3° |
| 2026-04-24 19:32 | 56.98408 | 23.98020 | 2483 ft | 224 kts | 4° |
| 2026-04-24 19:32 | 57.00030 | 23.98299 | 3099 ft | 241 kts | 4° |
| 2026-04-24 19:32 | 57.01731 | 23.98594 | 3791 ft | 249 kts | 4° |
| 2026-04-24 19:32 | 57.03463 | 23.98857 | 4707 ft | 250 kts | 359° |
| 2026-04-24 19:33 | 57.05156 | 23.98228 | 5705 ft | 251 kts | 335° |
| 2026-04-24 19:33 | 57.06543 | 23.96290 | 6649 ft | 256 kts | 310° |
| 2026-04-24 19:33 | 57.07316 | 23.93315 | 7557 ft | 265 kts | 284° |
| 2026-04-24 19:33 | 57.07256 | 23.89883 | 8470 ft | 276 kts | 262° |
| 2026-04-24 19:34 | 57.06822 | 23.86432 | 9399 ft | 279 kts | 262° |
| 2026-04-24 19:34 | 57.06373 | 23.82936 | 10156 ft | 287 kts | 262° |
| 2026-04-24 19:34 | 57.05903 | 23.79225 | 10428 ft | 309 kts | 262° |
| 2026-04-24 19:34 | 57.05408 | 23.75307 | 10986 ft | 318 kts | 262° |
| 2026-04-24 19:35 | 57.04900 | 23.71322 | 11735 ft | 322 kts | 261° |
| 2026-04-24 19:35 | 57.04386 | 23.67304 | 12525 ft | 325 kts | 261° |
| 2026-04-24 19:35 | 57.03869 | 23.63253 | 13279 ft | 327 kts | 261° |
| 2026-04-24 19:35 | 57.03347 | 23.59171 | 14000 ft | 330 kts | 261° |
| 2026-04-24 19:36 | 57.02820 | 23.55050 | 14682 ft | 332 kts | 261° |
| 2026-04-24 19:36 | 57.02289 | 23.50908 | 15331 ft | 335 kts | 261° |
| 2026-04-24 19:36 | 57.01752 | 23.46731 | 15989 ft | 337 kts | 261° |
| 2026-04-24 19:36 | 57.01212 | 23.42536 | 16641 ft | 340 kts | 260° |
| 2026-04-24 19:37 | 57.00666 | 23.38300 | 17302 ft | 342 kts | 260° |
| 2026-04-24 19:37 | 57.00114 | 23.34035 | 17957 ft | 345 kts | 260° |
| 2026-04-24 19:37 | 56.99553 | 23.29730 | 18543 ft | 348 kts | 260° |
| 2026-04-24 19:37 | 56.98988 | 23.25400 | 19114 ft | 351 kts | 260° |
| 2026-04-24 19:38 | 56.98418 | 23.21031 | 19699 ft | 353 kts | 260° |
| 2026-04-24 19:38 | 56.97852 | 23.16705 | 20284 ft | 356 kts | 259° |
| 2026-04-24 19:38 | 56.97270 | 23.12278 | 20839 ft | 358 kts | 259° |
| 2026-04-24 19:38 | 56.96682 | 23.07830 | 21373 ft | 361 kts | 259° |
| 2026-04-24 19:39 | 56.96088 | 23.03351 | 21893 ft | 363 kts | 259° |
| 2026-04-24 19:39 | 56.95488 | 22.98842 | 22413 ft | 366 kts | 259° |
| 2026-04-24 19:39 | 56.94884 | 22.94304 | 22959 ft | 368 kts | 259° |
| 2026-04-24 19:39 | 56.94275 | 22.89727 | 23483 ft | 371 kts | 258° |
| 2026-04-24 19:40 | 56.93661 | 22.85130 | 23928 ft | 373 kts | 258° |
| 2026-04-24 19:40 | 56.93041 | 22.80509 | 24353 ft | 375 kts | 258° |
| 2026-04-24 19:40 | 56.92414 | 22.75863 | 24788 ft | 377 kts | 258° |
| 2026-04-24 19:40 | 56.91779 | 22.71186 | 25217 ft | 379 kts | 258° |
| 2026-04-24 19:41 | 56.91140 | 22.66487 | 25634 ft | 382 kts | 258° |
| 2026-04-24 19:41 | 56.90496 | 22.61759 | 26065 ft | 384 kts | 258° |
| 2026-04-24 19:41 | 56.89847 | 22.57003 | 26466 ft | 387 kts | 258° |
| 2026-04-24 19:41 | 56.89194 | 22.52217 | 26881 ft | 389 kts | 258° |
| 2026-04-24 19:42 | 56.88535 | 22.47395 | 27274 ft | 392 kts | 257° |
| 2026-04-24 19:42 | 56.87870 | 22.42553 | 27673 ft | 394 kts | 257° |
| 2026-04-24 19:42 | 56.87199 | 22.37675 | 27858 ft | 396 kts | 257° |
| 2026-04-24 19:42 | 56.86526 | 22.32801 | 27893 ft | 396 kts | 257° |
| 2026-04-24 19:43 | 56.85849 | 22.27933 | 27885 ft | 395 kts | 257° |
| 2026-04-24 19:43 | 56.85168 | 22.23060 | 27987 ft | 398 kts | 257° |
| 2026-04-24 19:43 | 56.84481 | 22.18150 | 28444 ft | 399 kts | 257° |
| 2026-04-24 19:43 | 56.83791 | 22.13227 | 28871 ft | 401 kts | 257° |
| 2026-04-24 19:44 | 56.83095 | 22.08278 | 29275 ft | 404 kts | 257° |
| 2026-04-24 19:44 | 56.82390 | 22.03291 | 29674 ft | 406 kts | 257° |
| 2026-04-24 19:44 | 56.81678 | 21.98282 | 30042 ft | 409 kts | 256° |
| 2026-04-24 19:44 | 56.81103 | 21.93198 | 30368 ft | 410 kts | 267° |
| 2026-04-24 19:45 | 56.81266 | 21.88008 | 30694 ft | 411 kts | 278° |
| 2026-04-24 19:45 | 56.81682 | 21.82822 | 31030 ft | 413 kts | 278° |
| 2026-04-24 19:45 | 56.82113 | 21.77625 | 31394 ft | 415 kts | 278° |
| 2026-04-24 19:45 | 56.82540 | 21.72432 | 31879 ft | 413 kts | 278° |
| 2026-04-24 19:46 | 56.82960 | 21.67258 | 32368 ft | 411 kts | 278° |
| 2026-04-24 19:46 | 56.83374 | 21.62091 | 32851 ft | 410 kts | 278° |
| 2026-04-24 19:46 | 56.83780 | 21.56943 | 33335 ft | 409 kts | 278° |
| 2026-04-24 19:46 | 56.84181 | 21.51812 | 33827 ft | 408 kts | 278° |
| 2026-04-24 19:47 | 56.84579 | 21.46685 | 34213 ft | 408 kts | 278° |
| 2026-04-24 19:47 | 56.84971 | 21.41555 | 34550 ft | 408 kts | 278° |
| 2026-04-24 19:47 | 56.85357 | 21.36413 | 34880 ft | 408 kts | 278° |
| 2026-04-24 19:47 | 56.85736 | 21.31273 | 35201 ft | 408 kts | 278° |
| 2026-04-24 19:48 | 56.86109 | 21.26129 | 35511 ft | 409 kts | 278° |
| 2026-04-24 19:48 | 56.86475 | 21.20978 | 35818 ft | 409 kts | 278° |
| 2026-04-24 19:48 | 56.87191 | 21.10651 | 36423 ft | 410 kts | 278° |
| 2026-04-24 19:49 | 56.87885 | 21.00313 | 37007 ft | 410 kts | 278° |
| 2026-04-24 19:49 | 56.88556 | 20.89942 | 37544 ft | 411 kts | 278° |
| 2026-04-24 19:50 | 56.89524 | 20.74265 | 37922 ft | 412 kts | 278° |
| 2026-04-24 19:50 | 56.89837 | 20.69125 | 37919 ft | 412 kts | 278° |
| 2026-04-24 19:51 | 56.90690 | 20.53469 | 37923 ft | 414 kts | 269° |
| 2026-04-24 19:52 | 56.88980 | 20.43391 | 37931 ft | 424 kts | 246° |
| 2026-04-24 19:52 | 56.87595 | 20.38628 | 37922 ft | 425 kts | 245° |
| 2026-04-24 19:52 | 56.84773 | 20.29124 | 37923 ft | 426 kts | 245° |
| 2026-04-24 19:53 | 56.81936 | 20.19605 | 37908 ft | 427 kts | 245° |
| 2026-04-24 19:54 | 56.77679 | 20.05322 | 37931 ft | 427 kts | 245° |
| 2026-04-24 19:54 | 56.74832 | 19.95815 | 37942 ft | 427 kts | 245° |
| 2026-04-24 19:55 | 56.72463 | 19.87911 | 37954 ft | 427 kts | 245° |
| 2026-04-24 19:55 | 56.69123 | 19.76827 | 37954 ft | 427 kts | 245° |
| 2026-04-24 19:56 | 56.66253 | 19.67366 | 37957 ft | 427 kts | 245° |
| 2026-04-24 19:56 | 56.63379 | 19.57912 | 37931 ft | 427 kts | 245° |
| 2026-04-24 19:57 | 56.60506 | 19.48480 | 37946 ft | 426 kts | 245° |
| 2026-04-24 19:57 | 56.57649 | 19.39137 | 37950 ft | 426 kts | 245° |
| 2026-04-24 19:58 | 56.54760 | 19.29749 | 37955 ft | 427 kts | 245° |
| 2026-04-24 19:58 | 56.51863 | 19.20366 | 37956 ft | 426 kts | 245° |
| 2026-04-24 19:59 | 56.48958 | 19.11006 | 37954 ft | 427 kts | 245° |
| 2026-04-24 19:59 | 56.46046 | 19.01649 | 37929 ft | 427 kts | 245° |
| 2026-04-24 20:00 | 56.43130 | 18.92319 | 37952 ft | 426 kts | 245° |
| 2026-04-24 20:00 | 56.40210 | 18.83022 | 37962 ft | 425 kts | 245° |
| 2026-04-24 20:01 | 56.37286 | 18.73738 | 37968 ft | 425 kts | 245° |
| 2026-04-24 20:01 | 56.34355 | 18.64471 | 37949 ft | 425 kts | 245° |
| 2026-04-24 20:02 | 56.31914 | 18.56779 | 37951 ft | 426 kts | 245° |
| 2026-04-24 20:02 | 56.28470 | 18.45952 | 37957 ft | 426 kts | 245° |
| 2026-04-24 20:03 | 56.25515 | 18.36706 | 37946 ft | 426 kts | 244° |
| 2026-04-24 20:03 | 56.22680 | 18.27376 | 37959 ft | 422 kts | 252° |
| 2026-04-24 20:04 | 56.20697 | 18.17508 | 37961 ft | 420 kts | 254° |
| 2026-04-24 20:04 | 56.18720 | 18.07652 | 37962 ft | 420 kts | 254° |
| 2026-04-24 20:05 | 56.16746 | 17.97866 | 37960 ft | 420 kts | 254° |
| 2026-04-24 20:05 | 56.14740 | 17.87958 | 37947 ft | 420 kts | 254° |
| 2026-04-24 20:06 | 56.12758 | 17.78194 | 37953 ft | 420 kts | 254° |
| 2026-04-24 20:06 | 56.10762 | 17.68366 | 37922 ft | 420 kts | 254° |
| 2026-04-24 20:07 | 56.09087 | 17.60210 | 37951 ft | 419 kts | 254° |
| 2026-04-24 20:07 | 56.06727 | 17.48795 | 37961 ft | 418 kts | 254° |
| 2026-04-24 20:08 | 56.04709 | 17.39054 | 37966 ft | 417 kts | 254° |
| 2026-04-24 20:08 | 56.02689 | 17.29344 | 37965 ft | 416 kts | 254° |
| 2026-04-24 20:09 | 56.00661 | 17.19643 | 37951 ft | 416 kts | 254° |
| 2026-04-24 20:09 | 55.98629 | 17.09963 | 37952 ft | 416 kts | 254° |
| 2026-04-24 20:10 | 55.96580 | 17.00292 | 37953 ft | 416 kts | 254° |
| 2026-04-24 20:10 | 55.94525 | 16.90627 | 37911 ft | 416 kts | 254° |
| 2026-04-24 20:11 | 55.92472 | 16.80983 | 37950 ft | 416 kts | 254° |
| 2026-04-24 20:11 | 55.90759 | 16.72985 | 37958 ft | 415 kts | 254° |
| 2026-04-24 20:12 | 55.88692 | 16.63400 | 37954 ft | 414 kts | 254° |
| 2026-04-24 20:12 | 55.86624 | 16.53838 | 37956 ft | 414 kts | 254° |
| 2026-04-24 20:13 | 55.84547 | 16.44284 | 37956 ft | 414 kts | 254° |
| 2026-04-24 20:13 | 55.82472 | 16.34740 | 37952 ft | 414 kts | 254° |
| 2026-04-24 20:14 | 55.80382 | 16.25203 | 37950 ft | 414 kts | 254° |
| 2026-04-24 20:14 | 55.78289 | 16.15681 | 37948 ft | 414 kts | 254° |
| 2026-04-24 20:15 | 55.76185 | 16.06167 | 37939 ft | 413 kts | 254° |
| 2026-04-24 20:15 | 55.74085 | 15.96703 | 37952 ft | 411 kts | 254° |
| 2026-04-24 20:16 | 55.71982 | 15.87270 | 37956 ft | 410 kts | 254° |
| 2026-04-24 20:16 | 55.69880 | 15.77886 | 37958 ft | 409 kts | 253° |
| 2026-04-24 20:17 | 55.67771 | 15.68547 | 37953 ft | 408 kts | 253° |
| 2026-04-24 20:17 | 55.64616 | 15.54644 | 37944 ft | 407 kts | 253° |
| 2026-04-24 20:18 | 55.62504 | 15.45359 | 37955 ft | 407 kts | 253° |
| 2026-04-24 20:18 | 55.60379 | 15.36082 | 37920 ft | 406 kts | 253° |
| 2026-04-24 20:19 | 55.58258 | 15.26837 | 37946 ft | 405 kts | 253° |
| 2026-04-24 20:19 | 55.56132 | 15.17629 | 37945 ft | 404 kts | 253° |
| 2026-04-24 20:20 | 55.54004 | 15.08442 | 37955 ft | 404 kts | 253° |
| 2026-04-24 20:20 | 55.51873 | 14.99265 | 37955 ft | 404 kts | 253° |
| 2026-04-24 20:21 | 55.49740 | 14.90113 | 37964 ft | 403 kts | 253° |
| 2026-04-24 20:21 | 55.47598 | 14.80977 | 37965 ft | 403 kts | 253° |
| 2026-04-24 20:22 | 55.45442 | 14.71854 | 37966 ft | 403 kts | 253° |
| 2026-04-24 20:22 | 55.43282 | 14.62735 | 37971 ft | 403 kts | 253° |
| 2026-04-24 20:23 | 55.41120 | 14.53625 | 37930 ft | 403 kts | 252° |
| 2026-04-24 20:23 | 55.38946 | 14.44528 | 37939 ft | 404 kts | 252° |
| 2026-04-24 20:24 | 55.36765 | 14.35421 | 37948 ft | 404 kts | 252° |
| 2026-04-24 20:24 | 55.34576 | 14.26317 | 37965 ft | 404 kts | 252° |
| 2026-04-24 20:25 | 55.32380 | 14.17227 | 37972 ft | 404 kts | 252° |
| 2026-04-24 20:25 | 55.30169 | 14.08139 | 37974 ft | 405 kts | 252° |
| 2026-04-24 20:26 | 55.27971 | 13.99127 | 37986 ft | 405 kts | 251° |
| 2026-04-24 20:26 | 55.25748 | 13.90057 | 37953 ft | 405 kts | 251° |
| 2026-04-24 20:27 | 55.23524 | 13.80989 | 37960 ft | 405 kts | 251° |
| 2026-04-24 20:27 | 55.21290 | 13.71925 | 37973 ft | 406 kts | 251° |
| 2026-04-24 20:28 | 55.19041 | 13.62857 | 37978 ft | 406 kts | 251° |
| 2026-04-24 20:28 | 55.16785 | 13.53802 | 37982 ft | 406 kts | 251° |
| 2026-04-24 20:29 | 55.14520 | 13.44751 | 37987 ft | 406 kts | 251° |
| 2026-04-24 20:29 | 55.12250 | 13.35702 | 37989 ft | 406 kts | 251° |
| 2026-04-24 20:30 | 55.09976 | 13.26660 | 37992 ft | 406 kts | 251° |
| 2026-04-24 20:30 | 55.07697 | 13.17628 | 37976 ft | 407 kts | 250° |
| 2026-04-24 20:31 | 55.05402 | 13.08588 | 37960 ft | 408 kts | 250° |
| 2026-04-24 20:31 | 55.03085 | 12.99541 | 37969 ft | 409 kts | 250° |
| 2026-04-24 20:32 | 55.00765 | 12.90480 | 37971 ft | 409 kts | 250° |
| 2026-04-24 20:32 | 54.98441 | 12.81426 | 37988 ft | 410 kts | 250° |
| 2026-04-24 20:33 | 54.96104 | 12.72369 | 38000 ft | 410 kts | 250° |
| 2026-04-24 20:33 | 54.93778 | 12.63377 | 38004 ft | 410 kts | 250° |
| 2026-04-24 20:34 | 54.91415 | 12.54278 | 37994 ft | 411 kts | 249° |
| 2026-04-24 20:34 | 54.90232 | 12.49740 | 37764 ft | 412 kts | 249° |
| 2026-04-24 20:34 | 54.89050 | 12.45227 | 37404 ft | 410 kts | 249° |
| 2026-04-24 20:35 | 54.87867 | 12.40720 | 36859 ft | 409 kts | 249° |
| 2026-04-24 20:35 | 54.86689 | 12.36235 | 36324 ft | 408 kts | 249° |
| 2026-04-24 20:35 | 54.85532 | 12.31843 | 35951 ft | 403 kts | 249° |
| 2026-04-24 20:35 | 54.84352 | 12.27378 | 35528 ft | 400 kts | 249° |
| 2026-04-24 20:36 | 54.83208 | 12.23050 | 34956 ft | 402 kts | 249° |
| 2026-04-24 20:36 | 54.82019 | 12.18548 | 34215 ft | 407 kts | 249° |
| 2026-04-24 20:36 | 54.80835 | 12.14140 | 33438 ft | 412 kts | 246° |
| 2026-04-24 20:36 | 54.79165 | 12.10051 | 32624 ft | 422 kts | 232° |
| 2026-04-24 20:37 | 54.77145 | 12.06287 | 32048 ft | 417 kts | 231° |
| 2026-04-24 20:37 | 54.75200 | 12.02714 | 31205 ft | 410 kts | 231° |
| 2026-04-24 20:37 | 54.73250 | 11.99154 | 30324 ft | 405 kts | 231° |
| 2026-04-24 20:37 | 54.71323 | 11.95639 | 29356 ft | 400 kts | 231° |
| 2026-04-24 20:38 | 54.69422 | 11.92170 | 28362 ft | 395 kts | 231° |
| 2026-04-24 20:38 | 54.67546 | 11.88743 | 27410 ft | 391 kts | 231° |
| 2026-04-24 20:38 | 54.65691 | 11.85352 | 26511 ft | 386 kts | 231° |
| 2026-04-24 20:38 | 54.63853 | 11.81992 | 25662 ft | 382 kts | 231° |
| 2026-04-24 20:39 | 54.62057 | 11.78711 | 25194 ft | 369 kts | 231° |
| 2026-04-24 20:39 | 54.60324 | 11.75556 | 24791 ft | 355 kts | 231° |
| 2026-04-24 20:39 | 54.58656 | 11.72529 | 24394 ft | 342 kts | 231° |
| 2026-04-24 20:39 | 54.57032 | 11.69589 | 24007 ft | 337 kts | 231° |
| 2026-04-24 20:40 | 54.55421 | 11.66667 | 23615 ft | 336 kts | 231° |
| 2026-04-24 20:40 | 54.53811 | 11.63751 | 23173 ft | 335 kts | 231° |
| 2026-04-24 20:40 | 54.52210 | 11.60856 | 22778 ft | 333 kts | 231° |
| 2026-04-24 20:40 | 54.50617 | 11.57983 | 22382 ft | 331 kts | 231° |
| 2026-04-24 20:41 | 54.49035 | 11.55133 | 21997 ft | 328 kts | 231° |
| 2026-04-24 20:41 | 54.47463 | 11.52299 | 21616 ft | 327 kts | 232° |
| 2026-04-24 20:41 | 54.45898 | 11.49476 | 21208 ft | 325 kts | 231° |
| 2026-04-24 20:41 | 54.44342 | 11.46681 | 20842 ft | 323 kts | 231° |
| 2026-04-24 20:42 | 54.42794 | 11.43905 | 20458 ft | 321 kts | 231° |
| 2026-04-24 20:42 | 54.41252 | 11.41141 | 20084 ft | 320 kts | 232° |
| 2026-04-24 20:42 | 54.39712 | 11.38382 | 19706 ft | 319 kts | 232° |
| 2026-04-24 20:42 | 54.38178 | 11.35635 | 19323 ft | 318 kts | 232° |
| 2026-04-24 20:43 | 54.36648 | 11.32896 | 18945 ft | 318 kts | 232° |
| 2026-04-24 20:43 | 54.35121 | 11.30162 | 18561 ft | 317 kts | 232° |
| 2026-04-24 20:43 | 54.33593 | 11.27435 | 18152 ft | 317 kts | 232° |
| 2026-04-24 20:43 | 54.32069 | 11.24720 | 17766 ft | 315 kts | 232° |
| 2026-04-24 20:44 | 54.30551 | 11.22018 | 17369 ft | 313 kts | 232° |
| 2026-04-24 20:44 | 54.29044 | 11.19343 | 17017 ft | 311 kts | 232° |
| 2026-04-24 20:44 | 54.27543 | 11.16685 | 16641 ft | 310 kts | 232° |
| 2026-04-24 20:44 | 54.26045 | 11.14038 | 16269 ft | 309 kts | 232° |
| 2026-04-24 20:45 | 54.24555 | 11.11401 | 15900 ft | 308 kts | 232° |
| 2026-04-24 20:45 | 54.23069 | 11.08767 | 15533 ft | 307 kts | 232° |
| 2026-04-24 20:45 | 54.21589 | 11.06152 | 15177 ft | 306 kts | 232° |
| 2026-04-24 20:45 | 54.20112 | 11.03545 | 14814 ft | 305 kts | 232° |
| 2026-04-24 20:46 | 54.18636 | 11.00942 | 14442 ft | 305 kts | 232° |
| 2026-04-24 20:46 | 54.17161 | 10.98341 | 14083 ft | 305 kts | 232° |
| 2026-04-24 20:46 | 54.15684 | 10.95739 | 13691 ft | 305 kts | 232° |
| 2026-04-24 20:46 | 54.14208 | 10.93149 | 13317 ft | 304 kts | 232° |
| 2026-04-24 20:47 | 54.12737 | 10.90574 | 12951 ft | 302 kts | 232° |
| 2026-04-24 20:47 | 54.11274 | 10.88010 | 12587 ft | 301 kts | 232° |
| 2026-04-24 20:47 | 54.09812 | 10.85451 | 12219 ft | 300 kts | 232° |
| 2026-04-24 20:47 | 54.08354 | 10.82900 | 11765 ft | 303 kts | 232° |
| 2026-04-24 20:48 | 54.06881 | 10.80322 | 11368 ft | 303 kts | 232° |
| 2026-04-24 20:48 | 54.05413 | 10.77753 | 10999 ft | 302 kts | 232° |
| 2026-04-24 20:48 | 54.03946 | 10.75191 | 10629 ft | 302 kts | 232° |
| 2026-04-24 20:48 | 54.02480 | 10.72637 | 10261 ft | 301 kts | 232° |
| 2026-04-24 20:49 | 54.01015 | 10.70089 | 9883 ft | 301 kts | 232° |
| 2026-04-24 20:49 | 53.99567 | 10.67578 | 9619 ft | 296 kts | 231° |
| 2026-04-24 20:49 | 53.98128 | 10.65082 | 9271 ft | 294 kts | 231° |
| 2026-04-24 20:49 | 53.96704 | 10.62616 | 8790 ft | 289 kts | 231° |
| 2026-04-24 20:50 | 53.95339 | 10.60258 | 8420 ft | 281 kts | 231° |
| 2026-04-24 20:50 | 53.93972 | 10.57893 | 8075 ft | 281 kts | 231° |
| 2026-04-24 20:50 | 53.92607 | 10.55529 | 7721 ft | 280 kts | 231° |
| 2026-04-24 20:50 | 53.91224 | 10.53133 | 7366 ft | 280 kts | 231° |
| 2026-04-24 20:51 | 53.89864 | 10.50782 | 7092 ft | 276 kts | 231° |
| 2026-04-24 20:51 | 53.88556 | 10.48531 | 6985 ft | 267 kts | 231° |
| 2026-04-24 20:51 | 53.87277 | 10.46335 | 6842 ft | 254 kts | 231° |
| 2026-04-24 20:51 | 53.86056 | 10.44247 | 6542 ft | 246 kts | 231° |
| 2026-04-24 20:52 | 53.84868 | 10.42206 | 6146 ft | 243 kts | 231° |
| 2026-04-24 20:52 | 53.83682 | 10.40163 | 5850 ft | 242 kts | 231° |
| 2026-04-24 20:52 | 53.82508 | 10.38141 | 5716 ft | 240 kts | 231° |
| 2026-04-24 20:52 | 53.81339 | 10.36113 | 5533 ft | 241 kts | 233° |
| 2026-04-24 20:53 | 53.80227 | 10.33980 | 5167 ft | 243 kts | 235° |
| 2026-04-24 20:53 | 53.79144 | 10.31780 | 4825 ft | 243 kts | 236° |
| 2026-04-24 20:53 | 53.78069 | 10.29566 | 4493 ft | 244 kts | 236° |
| 2026-04-24 20:53 | 53.77008 | 10.27391 | 4163 ft | 235 kts | 236° |
| 2026-04-24 20:54 | 53.75990 | 10.25296 | 4003 ft | 225 kts | 237° |
| 2026-04-24 20:54 | 53.75022 | 10.23290 | 3825 ft | 221 kts | 238° |
| 2026-04-24 20:54 | 53.74036 | 10.21226 | 3372 ft | 227 kts | 237° |
| 2026-04-24 20:54 | 53.73048 | 10.19201 | 3041 ft | 221 kts | 236° |
| 2026-04-24 20:55 | 53.72071 | 10.17204 | 2741 ft | 220 kts | 237° |
| 2026-04-24 20:55 | 53.71122 | 10.15272 | 2443 ft | 207 kts | 237° |
| 2026-04-24 20:55 | 53.70230 | 10.13461 | 2164 ft | 192 kts | 237° |
| 2026-04-24 20:55 | 53.69401 | 10.11768 | 1937 ft | 182 kts | 237° |
| 2026-04-24 20:56 | 53.68618 | 10.10175 | 1670 ft | 169 kts | 237° |
| 2026-04-24 20:56 | 53.67908 | 10.08735 | 1462 ft | 148 kts | 238° |
| 2026-04-24 20:56 | 53.67284 | 10.07465 | 1248 ft | 135 kts | 238° |
| 2026-04-24 20:56 | 53.66692 | 10.06254 | 1056 ft | 133 kts | 238° |
| 2026-04-24 20:57 | 53.66106 | 10.05063 | 864 ft | 131 kts | 236° |
| 2026-04-24 20:57 | 53.65727 | 10.04292 | 758 ft | 126 kts | 238° |
| 2026-04-24 20:57 | 53.65166 | 10.03151 | 578 ft | 127 kts | 237° |
| 2026-04-24 20:57 | 53.64431 | 10.01654 | 360 ft | 127 kts | 237° |
| 2026-04-24 20:58 | 53.64050 | 10.00878 | 244 ft | 127 kts | 235° |
| 2026-04-24 20:58 | 53.63483 | 9.99742 | 64 ft | 126 kts | 234° |
| 2026-04-24 20:58 | 53.63002 | 9.98749 | 51 ft | 86 kts | 230° |
| 2026-04-24 20:58 | 53.62715 | 9.98172 | 54 ft | 54 kts | 230° |
| 2026-04-24 20:59 | 53.62525 | 9.97790 | 51 ft | 19 kts | 225° |
| 2026-04-24 20:59 | 53.62447 | 9.97814 | 51 ft | 6 kts | 135° |
| 2026-04-24 20:59 | 53.62422 | 9.97888 | 51 ft | 9 kts | 96° |
| 2026-04-24 20:59 | 53.62436 | 9.98006 | 48 ft | 12 kts | 77° |
| 2026-04-24 21:00 | 53.62480 | 9.98138 | 48 ft | 15 kts | 50° |
| 2026-04-24 21:00 | 53.62554 | 9.98283 | 51 ft | 15 kts | 49° |
| 2026-04-24 21:00 | 53.62616 | 9.98407 | 51 ft | 14 kts | 50° |
| 2026-04-24 21:00 | 53.62688 | 9.98552 | 51 ft | 18 kts | 50° |
| 2026-04-24 21:01 | 53.62775 | 9.98728 | 51 ft | 21 kts | 50° |
| 2026-04-24 21:01 | 53.62855 | 9.98891 | 51 ft | 19 kts | 50° |
| 2026-04-24 21:01 | 53.62947 | 9.99073 | 51 ft | 21 kts | 51° |
| 2026-04-24 21:01 | 53.63034 | 9.99254 | 51 ft | 18 kts | 52° |
| 2026-04-24 21:02 | 53.63101 | 9.99411 | 52 ft | 14 kts | 55° |
| 2026-04-24 21:02 | 53.63167 | 9.99561 | 51 ft | 16 kts | 50° |
| 2026-04-24 21:02 | 53.63216 | 9.99658 | 51 ft | 12 kts | 50° |
| 2026-04-24 21:02 | 53.63283 | 9.99770 | 51 ft | 14 kts | 45° |
| 2026-04-24 21:03 | 53.63349 | 9.99903 | 51 ft | 16 kts | 52° |
| 2026-04-24 21:03 | 53.63418 | 10.00041 | 51 ft | 13 kts | 50° |
| 2026-04-24 21:03 | 53.63404 | 10.00187 | 50 ft | 15 kts | 127° |
| 2026-04-24 21:03 | 53.63296 | 10.00234 | 51 ft | 14 kts | 176° |
| 2026-04-24 21:04 | 53.63231 | 10.00242 | 51 ft | 10 kts | 175° |
| 2026-04-24 21:04 | 53.63200 | 10.00277 | 51 ft | 6 kts | 92° |
| 2026-04-24 21:04 | 53.63195 | 10.00319 | 51 ft | 0 kts | 102° |
| 2026-04-24 21:04 | 53.63197 | 10.00327 | 51 ft | 2 kts | 76° |
| 2026-04-24 21:05 | 53.63205 | 10.00356 | 50 ft | 2 kts | 83° |
| 2026-04-24 21:05 | 53.63205 | 10.00358 | 51 ft | 0 kts | 86° |